EGKKEGKA

Guest
Details From EGKK - London Gatwick
To EGKA - Shoreham
Flight Number -
Tags decoded
Created
Modified
Stats Distance 19 nm / 36 km
Max Altitude 0 ft / 0 m
Waypoints 2
Social Downloads 3
Likes 0
Share VATSIM

Download

Looking for another format? Having issues loading an existing format? Contact us
Advertisement - Login to hide

Notes

Requested: EGKK EGKA

Route

EGKK EGKA

ID Type Via Altitude Latitude Longitude Leg Dist Tot Dist Heading (true) Name
O EGKK APT - 0 ft / 0 m 51.14875˚ -0.19247˚ - 0 nm - London Gatwick
O EGKA APT - 0 ft / 0 m 50.83580˚ -0.29481˚ 19 nm 19 nm 192° / 192° Shoreham

Altitude Profile

Advertisement - Login to hide

EGKK

Details ICAO EGKK (LGW)
Name London Gatwick
Region United Kingdom
Timezone Europe/London (UTC+0.0)
Stats Elevation 196 ft / 60 m (AMSL)
Location 51.148753° -0.192472°
Runways 2
Magnetic Variation 0.433° W

METAR

EGKK 120820Z 22005KT 8000 R26L/1400 NSC M03/M04 Q1008

Decode

TAF

TAF AMD EGKK 120755Z 1207/1312 29006KT 8000 NSC BECMG 1207/1210 CAVOK BECMG 1218/1221 BKN030 BECMG 1221/1224 BKN012 PROB30 1221/1224 8000 RA TEMPO 1300/1305 6000 RA BKN008 PROB30 TEMPO 1300/1305 21015G25KT 3000 RADZ BKN004 BECMG 1305/1307 BKN030 PROB40 TEMPO 1310/1312 7000 SHRA BKN014

Decode

Departure Runways

ID Width Length Bearing (true) Bearing (mag) Surface Threshold Offset Overrun Length
08L 148 ft / 45 m 8,377 ft / 2,553 m 77.69° 78.12° Asphalt 1,053 ft / 321 m 0 ft / 0 m
08R 148 ft / 45 m 10,341 ft / 3,152 m 77.59° 78.02° Asphalt 1,289 ft / 393 m 0 ft / 0 m
26L 148 ft / 45 m 10,341 ft / 3,152 m 257.63° 258.06° Asphalt 879 ft / 268 m 600 ft / 183 m
26R 148 ft / 45 m 8,377 ft / 2,553 m 257.71° 258.14° Asphalt 1,365 ft / 416 m 0 ft / 0 m

EGKA

Details ICAO EGKA (ESH)
Name Shoreham
Region United Kingdom
Timezone Europe/London (UTC+0.0)
Stats Elevation 7 ft / 2 m (AMSL)
Location 50.835805° -0.294806°
Runways 4
Magnetic Variation 0.435° W

METAR

EGKA 120820Z 35004KT CAVOK M02/M03 Q1009

Decode

TAF

Not found

Destination Runways

ID Width Length Bearing (true) Bearing (mag) Surface Threshold Offset Overrun Length
02 59 ft / 18 m 3,408 ft / 1,039 m 21.56° 21.99° Asphalt 548 ft / 167 m 0 ft / 0 m
02R 59 ft / 18 m 2,849 ft / 868 m 21.56° 21.99° Grass 171 ft / 52 m 0 ft / 0 m
07 164 ft / 50 m 2,883 ft / 879 m 63.45° 63.88° Grass 0 ft / 0 m 0 ft / 0 m
13 59 ft / 18 m 1,739 ft / 530 m 124.90° 125.33° Grass 0 ft / 0 m 0 ft / 0 m
20 59 ft / 18 m 3,408 ft / 1,039 m 201.56° 201.99° Asphalt 367 ft / 112 m 0 ft / 0 m
20L 59 ft / 18 m 2,849 ft / 868 m 201.56° 201.99° Grass 171 ft / 52 m 0 ft / 0 m
25 164 ft / 50 m 2,883 ft / 879 m 243.46° 243.89° Grass 285 ft / 87 m 0 ft / 0 m
31 59 ft / 18 m 1,739 ft / 530 m 304.91° 305.34° Grass 394 ft / 120 m 0 ft / 0 m

Popular Alternatives